Time;durP1;ratioP1;P1;durP2;ratioP2;P2;SDS_P1;SDS_P2;PMS_P1;PMS_P2;Temp;Humidity;BMP_temperature;BMP_pressure;BME280_temperature;BME280_humidity;BME280_pressure;Samples;Min_cycle;Max_cycle;Signal;HPM_P1;HPM_P2
2023/08/13 00:01:25;;;;;;;11.00;1.60;;;;;;;-142.75;100.00;76294.72;5081861;28;20106;-64
2023/08/13 00:03:51;;;;;;;13.00;1.75;;;;;;;-142.75;100.00;76286.84;5072322;28;20031;-62
2023/08/13 00:06:16;;;;;;;10.63;1.83;;;;;;;-142.75;100.00;76282.91;5074178;28;20029;-65
2023/08/13 00:08:42;;;;;;;12.10;1.67;;;;;;;-142.75;100.00;76284.88;5077613;28;20016;-64
2023/08/13 00:11:11;;;;;;;22.10;2.75;;;;;;;-142.75;100.00;76275.03;5076159;28;20078;-64
2023/08/13 00:13:37;;;;;;;9.80;1.63;;;;;;;-142.75;100.00;76277.00;5070255;28;20024;-64
2023/08/13 00:16:02;;;;;;;11.73;1.85;;;;;;;-142.75;100.00;76278.97;5075092;28;20027;-64
2023/08/13 00:18:28;;;;;;;11.82;2.05;;;;;;;-142.75;100.00;76271.09;5073802;28;20024;-64
2023/08/13 00:20:53;;;;;;;11.65;2.05;;;;;;;-142.75;100.00;76261.25;5075417;28;20034;-64
2023/08/13 00:23:19;;;;;;;10.07;2.15;;;;;;;-142.75;100.00;76278.97;5078650;28;20514;-64
2023/08/13 00:25:44;;;;;;;12.43;2.75;;;;;;;-142.75;100.00;76284.88;5088754;28;20095;-64
2023/08/13 00:28:09;;;;;;;7.28;1.98;;;;;;;-142.75;100.00;76280.94;5089119;28;20027;-64
2023/08/13 00:30:35;;;;;;;7.93;1.52;;;;;;;-142.75;100.00;76282.91;5080245;28;20039;-63
2023/08/13 00:33:00;;;;;;;6.82;1.60;;;;;;;-142.75;100.00;76275.03;5081731;28;20690;-63
2023/08/13 00:35:25;;;;;;;12.38;2.35;;;;;;;-142.75;100.00;76278.97;5070891;28;20051;-63
2023/08/13 00:37:51;;;;;;;9.68;1.90;;;;;;;-142.75;100.00;76269.13;5070625;28;20032;-63
2023/08/13 00:40:16;;;;;;;8.60;2.20;;;;;;;-142.75;100.00;76277.00;5071626;28;20028;-64
2023/08/13 00:42:42;;;;;;;11.18;2.50;;;;;;;-142.75;100.00;76280.94;5074914;28;20069;-64
2023/08/13 00:45:07;;;;;;;7.93;1.98;;;;;;;-142.75;100.00;76278.97;5071025;28;20020;-63
2023/08/13 00:47:34;;;;;;;10.13;2.15;;;;;;;-142.75;100.00;76286.84;5074950;28;20245;-64
2023/08/13 00:50:00;;;;;;;13.63;2.15;;;;;;;-142.75;100.00;76298.66;5072052;28;20032;-64
2023/08/13 00:52:25;;;;;;;12.80;2.03;;;;;;;-142.75;100.00;76290.78;5069555;28;20040;-63
2023/08/13 00:54:51;;;;;;;9.38;2.10;;;;;;;-142.75;100.00;76278.97;5070652;28;20025;-64
2023/08/13 00:57:16;;;;;;;11.80;3.17;;;;;;;-142.75;100.00;76275.03;5071942;28;20024;-64
2023/08/13 00:59:42;;;;;;;11.13;2.17;;;;;;;-142.75;100.00;76255.34;5069645;28;20037;-64
2023/08/13 01:02:08;;;;;;;10.25;2.28;;;;;;;-142.75;100.00;76269.13;5066454;28;20526;-64
2023/08/13 01:04:33;;;;;;;6.78;2.38;;;;;;;-142.75;100.00;76278.97;5066543;28;20111;-64
2023/08/13 01:07:19;;;;;;;11.43;2.47;;;;;;;-142.75;100.00;76271.09;5079261;28;20024;-64
2023/08/13 01:09:53;;;;;;;;;;;;;;;-142.75;100.00;76278.97;5087368;28;20027;-64
2023/08/13 01:12:42;;;;;;;10.77;2.33;;;;;;;-142.75;100.00;76271.09;5086983;28;19920;-64
2023/08/13 01:15:18;;;;;;;8.57;2.15;;;;;;;-142.75;100.00;76267.16;5086586;28;20028;-64
2023/08/13 01:17:47;;;;;;;9.05;2.35;;;;;;;-142.75;100.00;76269.13;5086678;28;20024;-64
2023/08/13 01:20:12;;;;;;;11.02;2.70;;;;;;;-142.75;100.00;76288.81;5086568;28;20092;-64
2023/08/13 01:22:39;;;;;;;8.18;1.92;;;;;;;-142.75;100.00;76290.78;5086535;28;20028;-64
2023/08/13 01:25:07;;;;;;;9.00;2.47;;;;;;;-142.75;100.00;76282.91;5086369;28;20446;-64
2023/08/13 01:27:42;;;;;;;8.55;2.35;;;;;;;-142.75;100.00;76277.00;5086627;28;20076;-64
2023/08/13 01:30:15;;;;;;;12.48;2.20;;;;;;;-142.75;100.00;76290.78;5086453;28;20031;-64
2023/08/13 01:32:58;;;;;;;12.77;2.83;;;;;;;-142.75;100.00;76282.91;5086507;28;20060;-65
2023/08/13 01:35:25;;;;;;;9.07;1.92;;;;;;;-142.75;100.00;76286.84;5080703;28;20056;-64
2023/08/13 01:37:52;;;;;;;13.20;2.17;;;;;;;-142.75;100.00;76298.66;5066412;28;20020;-65
2023/08/13 01:40:17;;;;;;;10.60;1.98;;;;;;;-142.75;100.00;76292.75;5066460;28;20027;-64
2023/08/13 01:42:43;;;;;;;7.28;2.03;;;;;;;-142.75;100.00;76290.78;5066675;28;20404;-65
2023/08/13 01:45:08;;;;;;;11.23;1.90;;;;;;;-142.75;100.00;76290.78;5065978;28;20066;-64
2023/08/13 01:47:34;;;;;;;8.45;1.98;;;;;;;-142.75;100.00;76302.59;5064868;28;20035;-65
2023/08/13 01:49:59;;;;;;;9.63;2.58;;;;;;;-142.75;100.00;76286.84;5066446;28;20062;-65
2023/08/13 01:52:25;;;;;;;8.07;1.83;;;;;;;-142.75;100.00;76306.53;5066068;28;20028;-64
2023/08/13 01:54:50;;;;;;;12.02;2.45;;;;;;;-142.75;100.00;76298.66;5066129;28;20399;-64
2023/08/13 01:57:15;;;;;;;10.20;2.53;;;;;;;-142.75;100.00;76306.53;5066291;28;20399;-65
2023/08/13 01:59:41;;;;;;;8.18;1.80;;;;;;;-142.75;100.00;76286.84;5075699;28;20024;-64
2023/08/13 02:02:06;;;;;;;7.32;2.15;;;;;;;-142.75;100.00;76282.91;5086073;28;20016;-64
2023/08/13 02:04:31;;;;;;;13.95;2.10;;;;;;;-142.75;100.00;76286.84;5085564;28;20081;-64
2023/08/13 02:06:57;;;;;;;9.95;1.73;;;;;;;-142.75;100.00;76284.88;5081971;28;20024;-64
2023/08/13 02:09:23;;;;;;;8.35;1.92;;;;;;;-142.75;100.00;76278.97;5064907;28;20050;-64
2023/08/13 02:11:48;;;;;;;9.32;2.40;;;;;;;-142.75;100.00;76275.03;5066387;28;20060;-64
2023/08/13 02:14:14;;;;;;;5.78;1.48;;;;;;;-142.75;100.00;76269.13;5065675;28;20060;-64
2023/08/13 02:16:39;;;;;;;12.90;2.30;;;;;;;-142.75;100.00;76290.78;5065825;28;20557;-64
2023/08/13 02:19:05;;;;;;;10.48;2.35;;;;;;;-142.75;100.00;76277.00;5065848;28;20513;-64
2023/08/13 02:21:30;;;;;;;13.70;2.42;;;;;;;-142.75;100.00;76286.84;5065569;28;20036;-64
2023/08/13 02:23:55;;;;;;;10.00;1.80;;;;;;;-142.75;100.00;76288.81;5065499;28;20017;-65
2023/08/13 02:26:21;;;;;;;12.30;1.88;;;;;;;-142.75;100.00;76292.75;5070820;28;20404;-64
2023/08/13 02:28:46;;;;;;;7.05;1.85;;;;;;;-142.75;100.00;76294.72;5085678;28;20480;-64
2023/08/13 02:31:11;;;;;;;9.40;1.80;;;;;;;-142.75;100.00;76298.66;5085884;28;20064;-64
2023/08/13 02:33:37;;;;;;;10.45;2.00;;;;;;;-142.75;100.00;76292.75;5085715;28;20022;-64
2023/08/13 02:36:02;;;;;;;8.27;2.00;;;;;;;-142.75;100.00;76290.78;5078539;28;20028;-64
2023/08/13 02:38:28;;;;;;;9.35;2.20;;;;;;;-142.75;100.00;76298.66;5065292;28;20035;-64
2023/08/13 02:40:53;;;;;;;9.02;2.08;;;;;;;-142.75;100.00;76290.78;5064441;28;20029;-65
2023/08/13 02:43:18;;;;;;;6.63;1.83;;;;;;;-142.75;100.00;76282.91;5066171;28;20074;-64
2023/08/13 02:45:44;;;;;;;6.30;1.73;;;;;;;-142.75;100.00;76286.84;5065432;28;20415;-64
2023/08/13 02:48:09;;;;;;;6.00;2.22;;;;;;;-142.75;100.00;76275.03;5065403;28;20059;-64
2023/08/13 02:50:34;;;;;;;8.00;1.48;;;;;;;-142.75;100.00;76275.03;5065389;28;20491;-64
2023/08/13 02:53:00;;;;;;;7.30;1.75;;;;;;;-142.75;100.00;76290.78;5065196;28;20109;-64
2023/08/13 02:55:26;;;;;;;8.57;1.88;;;;;;;-142.75;100.00;76292.75;5066394;28;20515;-64
2023/08/13 02:57:51;;;;;;;9.10;2.17;;;;;;;-142.75;100.00;76280.94;5069395;28;20059;-64
2023/08/13 03:00:17;;;;;;;9.82;1.83;;;;;;;-142.75;100.00;76275.03;5069197;28;20020;-64
2023/08/13 03:02:42;;;;;;;9.90;2.10;;;;;;;-142.75;100.00;76280.94;5068979;28;20551;-64
2023/08/13 03:05:09;;;;;;;8.50;1.63;;;;;;;-142.75;100.00;76273.06;5070534;28;20048;-64
2023/08/13 03:07:34;;;;;;;5.95;1.63;;;;;;;-142.75;100.00;76296.69;5088257;28;20036;-64
2023/08/13 03:10:00;;;;;;;10.52;1.83;;;;;;;-142.75;100.00;76286.84;5089408;28;20119;-64
2023/08/13 03:12:25;;;;;;;9.48;2.05;;;;;;;-142.75;100.00;76273.06;5089992;28;20090;-63
2023/08/13 03:14:51;;;;;;;6.85;1.40;;;;;;;-142.75;100.00;76273.06;5088901;28;20398;-64
2023/08/13 03:17:16;;;;;;;10.10;1.88;;;;;;;-142.75;100.00;76263.22;5088924;28;20127;-64
2023/08/13 03:19:41;;;;;;;10.50;1.55;;;;;;;-142.75;100.00;76282.91;5088842;28;20059;-64
2023/08/13 03:22:08;;;;;;;11.13;2.08;;;;;;;-142.75;100.00;76271.09;5088767;28;20047;-64
2023/08/13 03:24:34;;;;;;;7.25;1.40;;;;;;;-142.75;100.00;76269.13;5088595;28;20099;-64
2023/08/13 03:26:59;;;;;;;9.27;1.88;;;;;;;-142.75;100.00;76271.09;5088590;28;20130;-64
2023/08/13 03:29:24;;;;;;;7.10;1.73;;;;;;;-142.75;100.00;76251.41;5087571;28;20035;-64
2023/08/13 03:31:50;;;;;;;9.10;2.03;;;;;;;-142.75;100.00;76263.22;5088720;28;20016;-64
2023/08/13 03:34:15;;;;;;;11.40;2.13;;;;;;;-142.75;100.00;76259.28;5081987;28;20596;-64
2023/08/13 03:36:40;;;;;;;8.10;1.98;;;;;;;-142.75;100.00;76261.25;5071303;28;20387;-64
2023/08/13 03:39:06;;;;;;;11.32;2.08;;;;;;;-142.75;100.00;76269.13;5068635;28;20047;-64
2023/08/13 03:41:31;;;;;;;8.48;1.80;;;;;;;-142.75;100.00;76267.16;5068713;28;20601;-64
2023/08/13 03:43:56;;;;;;;9.52;2.08;;;;;;;-142.75;100.00;76263.22;5068771;28;20024;-64
2023/08/13 03:46:22;;;;;;;10.55;2.03;;;;;;;-142.75;100.00;76257.31;5068564;28;20027;-64
2023/08/13 03:48:47;;;;;;;9.70;1.80;;;;;;;-142.75;100.00;76251.41;5068286;28;20021;-64
2023/08/13 03:51:12;;;;;;;11.18;1.65;;;;;;;-142.75;100.00;76261.25;5074896;28;20055;-64
2023/08/13 03:53:38;;;;;;;8.65;1.70;;;;;;;-142.75;100.00;76251.41;5073084;28;20024;-63
2023/08/13 03:56:06;;;;;;;8.90;1.40;;;;;;;-142.75;100.00;76259.28;5084982;28;20556;-63
2023/08/13 03:58:34;;;;;;;10.18;1.77;;;;;;;-142.75;100.00;76265.19;5088302;28;20024;-64
2023/08/13 04:01:04;;;;;;;7.53;1.48;;;;;;;-142.75;100.00;76265.19;5088112;28;20046;-64
2023/08/13 04:03:30;;;;;;;9.45;1.67;;;;;;;-142.75;100.00;76251.41;5087731;28;20552;-64
2023/08/13 04:05:55;;;;;;;11.85;1.83;;;;;;;-142.75;100.00;76251.41;5086950;28;20111;-63
2023/08/13 04:08:20;;;;;;;8.65;1.90;;;;;;;-142.75;100.00;76255.34;5088295;28;20016;-63
2023/08/13 04:10:46;;;;;;;11.63;2.40;;;;;;;-142.75;100.00;76259.28;5088123;28;20028;-64
2023/08/13 04:13:11;;;;;;;8.50;1.73;;;;;;;-142.75;100.00;76271.09;5088376;28;20027;-64
2023/08/13 04:15:36;;;;;;;8.30;2.05;;;;;;;-142.75;100.00;76265.19;5084543;28;20647;-63
2023/08/13 04:18:02;;;;;;;10.40;2.00;;;;;;;-142.75;100.00;76253.38;5072059;28;20021;-64
2023/08/13 04:20:27;;;;;;;10.40;1.27;;;;;;;-142.75;100.00;76265.19;5077382;28;20035;-64
2023/08/13 04:22:52;;;;;;;8.35;2.08;;;;;;;-142.75;100.00;76269.13;5083192;28;20016;-63
2023/08/13 04:25:18;;;;;;;8.07;1.75;;;;;;;-142.75;100.00;76261.25;5080016;28;20016;-63
2023/08/13 04:27:43;;;;;;;8.48;1.88;;;;;;;-142.75;100.00;76263.22;5075688;28;20515;-64
2023/08/13 04:30:09;;;;;;;10.73;1.85;;;;;;;-142.75;100.00;76263.22;5068023;28;20027;-64
2023/08/13 04:32:37;;;;;;;14.23;2.00;;;;;;;-142.75;100.00;76259.28;5066539;28;20070;-63
2023/08/13 04:35:03;;;;;;;15.38;1.92;;;;;;;-142.75;100.00;76247.47;5067328;28;20078;-63
2023/08/13 04:37:29;;;;;;;16.60;2.47;;;;;;;-142.75;100.00;76251.41;5067402;28;20025;-64
2023/08/13 04:39:57;;;;;;;11.38;2.28;;;;;;;-142.75;100.00;76253.38;5067646;28;20020;-64
2023/08/13 04:42:22;;;;;;;9.77;1.80;;;;;;;-142.75;100.00;76257.31;5068027;28;20387;-63
2023/08/13 04:44:48;;;;;;;12.82;1.85;;;;;;;-142.75;100.00;76271.09;5066942;28;20024;-64
2023/08/13 04:47:13;;;;;;;17.65;2.22;;;;;;;-142.75;100.00;76259.28;5067087;28;20028;-63
2023/08/13 04:49:38;;;;;;;7.50;2.03;;;;;;;-142.75;100.00;76257.31;5067177;28;20400;-64
2023/08/13 04:52:04;;;;;;;10.77;2.00;;;;;;;-142.75;100.00;76255.34;5067222;28;20035;-64
2023/08/13 04:54:29;;;;;;;13.23;2.05;;;;;;;-142.75;100.00;76257.31;5067111;28;20024;-64
2023/08/13 04:56:54;;;;;;;13.57;2.35;;;;;;;-142.75;100.00;76235.66;5067346;28;20048;-64
2023/08/13 04:59:20;;;;;;;13.27;2.00;;;;;;;-142.75;100.00;76235.66;5067063;28;20031;-63
2023/08/13 05:01:45;;;;;;;7.60;1.90;;;;;;;-142.75;100.00;76245.50;5066753;28;20020;-64
2023/08/13 05:04:12;;;;;;;7.07;1.52;;;;;;;-142.75;100.00;76235.66;5066550;28;20016;-63
2023/08/13 05:06:37;;;;;;;13.40;2.10;;;;;;;-142.75;100.00;76241.56;5066820;28;20111;-64
2023/08/13 05:09:03;;;;;;;9.32;2.42;;;;;;;-142.75;100.00;76247.47;5066680;28;20115;-63
2023/08/13 05:11:28;;;;;;;13.85;3.08;;;;;;;-142.75;100.00;76237.63;5066929;28;20020;-63
2023/08/13 05:13:54;;;;;;;10.82;1.83;;;;;;;-142.75;100.00;76215.97;5067476;28;20428;-64
2023/08/13 05:16:19;;;;;;;11.02;1.80;;;;;;;-142.75;100.00;76214.00;5066577;28;20031;-63
2023/08/13 05:18:44;;;;;;;6.70;1.70;;;;;;;-142.75;100.00;76219.91;5066272;28;20055;-64
2023/08/13 05:21:10;;;;;;;10.05;1.60;;;;;;;-142.75;100.00;76212.03;5066619;28;20029;-64
2023/08/13 05:23:35;;;;;;;9.95;1.70;;;;;;;-142.75;100.00;76204.16;5066277;28;20107;-64
2023/08/13 05:26:00;;;;;;;6.47;1.55;;;;;;;-142.75;100.00;76196.31;5066422;28;20055;-64
2023/08/13 05:28:26;;;;;;;13.55;2.05;;;;;;;-142.75;100.00;76188.44;5066480;28;20031;-64
2023/08/13 05:30:51;;;;;;;12.77;2.47;;;;;;;-142.75;100.00;76196.31;5066604;28;20024;-63
2023/08/13 05:33:16;;;;;;;6.72;1.73;;;;;;;-142.75;100.00;76196.31;5066061;28;20032;-64
2023/08/13 05:35:42;;;;;;;7.82;1.52;;;;;;;-142.75;100.00;76184.50;5086248;28;20436;-64
2023/08/13 05:38:07;;;;;;;9.20;1.73;;;;;;;-142.75;100.00;76176.63;5070461;28;20157;-64
2023/08/13 05:40:33;;;;;;;6.18;1.85;;;;;;;-142.75;100.00;76178.59;5066360;28;20475;-64
2023/08/13 05:42:59;;;;;;;11.57;1.77;;;;;;;-142.75;100.00;76162.84;5066810;28;20020;-64
2023/08/13 05:45:24;;;;;;;10.77;2.13;;;;;;;-142.75;100.00;76139.22;5066177;28;20035;-64
2023/08/13 05:47:50;;;;;;;9.75;2.47;;;;;;;-142.75;100.00;76129.38;5066093;28;20028;-64
2023/08/13 05:50:16;;;;;;;11.70;2.97;;;;;;;-142.75;100.00;76151.03;5066148;28;20020;-64
2023/08/13 05:52:41;;;;;;;9.38;1.98;;;;;;;-142.75;100.00;76158.91;5065933;28;20060;-64
2023/08/13 05:55:07;;;;;;;11.43;1.92;;;;;;;-142.75;100.00;76141.19;5066032;28;20036;-63
2023/08/13 05:57:32;;;;;;;8.90;1.92;;;;;;;-142.75;100.00;76113.63;5066301;28;20051;-64
2023/08/13 05:59:58;;;;;;;8.68;1.85;;;;;;;-142.75;100.00;76099.84;5065979;28;20065;-64
2023/08/13 06:02:23;;;;;;;9.20;1.98;;;;;;;-142.75;100.00;76082.13;5065987;28;20100;-64
2023/08/13 06:04:49;;;;;;;9.68;2.40;;;;;;;-142.75;100.00;76093.94;5066055;28;20364;-64
2023/08/13 06:07:14;;;;;;;14.93;2.08;;;;;;;-142.75;100.00;76099.84;5066003;28;20016;-64
2023/08/13 06:09:39;;;;;;;11.38;2.67;;;;;;;-142.75;100.00;76082.13;5065930;28;20120;-64
2023/08/13 06:12:06;;;;;;;7.65;1.20;;;;;;;-142.75;100.00;76082.13;5066265;28;20155;-64
2023/08/13 06:14:31;;;;;;;14.32;1.88;;;;;;;-142.75;100.00;76078.19;5066438;28;20125;-64
2023/08/13 06:16:56;;;;;;;10.25;1.95;;;;;;;-142.75;100.00;76097.88;5065595;28;20095;-64
2023/08/13 06:19:22;;;;;;;7.88;1.42;;;;;;;-142.75;100.00;76090.00;5065806;28;20472;-64
2023/08/13 06:21:47;;;;;;;9.20;1.65;;;;;;;-142.75;100.00;76080.16;5065764;28;20101;-64
2023/08/13 06:24:12;;;;;;;9.57;1.70;;;;;;;-142.75;100.00;76097.88;5064277;28;20024;-64
2023/08/13 06:26:38;;;;;;;12.75;2.17;;;;;;;-142.75;100.00;76093.94;5065686;28;20017;-64
2023/08/13 06:29:03;;;;;;;15.30;1.80;;;;;;;-142.75;100.00;76080.16;5065788;28;20035;-64
2023/08/13 06:31:29;;;;;;;10.48;1.75;;;;;;;-142.75;100.00;76105.75;5069689;28;20031;-63
2023/08/13 06:33:54;;;;;;;10.35;1.85;;;;;;;-142.75;100.00;76070.34;5069603;28;20020;-64
2023/08/13 06:36:19;;;;;;;8.98;1.75;;;;;;;-142.75;100.00;76052.63;5069822;28;20059;-64
2023/08/13 06:38:45;;;;;;;12.88;2.40;;;;;;;-142.75;100.00;76088.03;5070389;28;20471;-64
2023/08/13 06:41:10;;;;;;;6.85;1.40;;;;;;;-142.75;100.00;76074.25;5069923;28;20046;-64
2023/08/13 06:43:35;;;;;;;8.27;1.52;;;;;;;-142.75;100.00;76050.66;5070087;28;20028;-63
2023/08/13 06:46:02;;;;;;;10.00;1.90;;;;;;;-142.75;100.00;76023.09;5069352;28;20016;-64
2023/08/13 06:48:30;;;;;;;8.57;1.73;;;;;;;-142.75;100.00;75979.78;5069700;28;20048;-64
2023/08/13 06:50:57;;;;;;;7.68;1.95;;;;;;;-142.75;100.00;75975.84;5069536;28;20134;-65
2023/08/13 06:53:23;;;;;;;9.43;2.05;;;;;;;-142.75;100.00;75938.47;5077801;28;20050;-65
2023/08/13 06:55:49;;;;;;;7.18;1.30;;;;;;;-142.75;100.00;75969.94;5089463;28;20043;-64
2023/08/13 06:58:14;;;;;;;7.60;1.45;;;;;;;-142.75;100.00;76005.38;5089484;28;20028;-65
2023/08/13 07:00:40;;;;;;;5.75;1.67;;;;;;;-142.75;100.00;75991.59;5089250;28;20582;-65
2023/08/13 07:03:06;;;;;;;6.03;1.30;;;;;;;-142.75;100.00;75995.53;5089103;28;20417;-65
2023/08/13 07:05:32;;;;;;;7.00;1.48;;;;;;;-142.75;100.00;76005.38;5089133;28;20024;-65
2023/08/13 07:07:57;;;;;;;8.15;1.45;;;;;;;-142.75;100.00;76001.44;5089237;28;20020;-64
2023/08/13 07:10:22;;;;;;;7.18;1.63;;;;;;;-142.75;100.00;76038.84;5089336;28;20020;-65
2023/08/13 07:12:48;;;;;;;7.22;1.63;;;;;;;-142.75;100.00;76040.81;5089704;28;20710;-65
2023/08/13 07:15:13;;;;;;;9.43;1.33;;;;;;;-142.75;100.00;76038.84;5089010;28;20019;-64
2023/08/13 07:17:38;;;;;;;6.80;1.10;;;;;;;-142.75;100.00;76032.94;5089131;28;20021;-64
2023/08/13 07:20:09;;;;;;;6.20;1.00;;;;;;;-142.75;100.00;76093.94;5089343;28;20047;-64
2023/08/13 07:22:35;;;;;;;5.45;1.10;;;;;;;-142.75;100.00;76050.66;5088803;28;20023;-65
2023/08/13 07:25:00;;;;;;;7.10;1.40;;;;;;;-142.75;100.00;76025.06;5086169;28;20896;-65
2023/08/13 07:27:25;;;;;;;5.85;1.27;;;;;;;-142.75;100.00;75995.53;5068563;28;20036;-66
2023/08/13 07:29:51;;;;;;;4.55;1.20;;;;;;;-142.75;100.00;75991.59;5068340;28;20023;-65
2023/08/13 07:32:16;;;;;;;6.57;1.20;;;;;;;-142.75;100.00;75991.59;5067400;28;20111;-65
2023/08/13 07:34:41;;;;;;;5.38;1.55;;;;;;;-142.75;100.00;75999.47;5068466;28;20486;-65
2023/08/13 07:37:07;;;;;;;4.40;1.25;;;;;;;-142.75;100.00;75991.59;5067284;28;20103;-65
2023/08/13 07:39:32;;;;;;;5.43;1.17;;;;;;;-142.75;100.00;75956.19;5068635;28;20023;-64
2023/08/13 07:41:57;;;;;;;6.63;1.15;;;;;;;-142.75;100.00;75940.44;5068447;28;20044;-65
2023/08/13 07:44:24;;;;;;;4.22;1.48;;;;;;;-142.75;100.00;75910.91;5069110;28;20051;-65
2023/08/13 07:46:50;;;;;;;7.45;1.48;;;;;;;-142.75;100.00;75924.69;5068370;28;20541;-64
2023/08/13 07:49:16;;;;;;;6.30;1.05;;;;;;;-142.75;100.00;75883.34;5068310;28;20515;-65
2023/08/13 07:51:42;;;;;;;4.95;1.27;;;;;;;-142.75;100.00;75849.91;5068567;28;20032;-65
2023/08/13 07:54:07;;;;;;;4.75;1.10;;;;;;;-142.75;100.00;75838.09;5068120;28;20089;-64
2023/08/13 07:56:32;;;;;;;4.03;1.00;;;;;;;-142.75;100.00;75863.66;5068250;28;20452;-64
2023/08/13 07:58:58;;;;;;;8.20;1.30;;;;;;;-142.75;100.00;75893.19;5077293;28;20019;-64
2023/08/13 08:01:25;;;;;;;7.40;1.30;;;;;;;-142.75;100.00;75952.25;5088475;28;20031;-64
2023/08/13 08:03:51;;;;;;;5.65;1.15;;;;;;;-142.75;100.00;75920.75;5088259;28;20406;-65
2023/08/13 08:06:16;;;;;;;6.40;1.27;;;;;;;-142.75;100.00;75908.94;5087957;28;20016;-65
2023/08/13 08:08:42;;;;;;;4.60;0.77;;;;;;;-142.75;100.00;75869.56;5086792;28;20047;-65
2023/08/13 08:11:07;;;;;;;9.10;1.23;;;;;;;-142.75;100.00;75875.47;5068095;28;20023;-65
2023/08/13 08:13:33;;;;;;;5.47;0.90;;;;;;;-142.75;100.00;75910.91;5068392;28;20392;-65
2023/08/13 08:15:58;;;;;;;2.80;0.75;;;;;;;-142.75;100.00;75918.78;5067947;28;20051;-64
2023/08/13 08:18:24;;;;;;;4.13;1.00;;;;;;;-142.75;100.00;75948.31;5068028;28;20027;-65
2023/08/13 08:20:49;;;;;;;6.97;1.23;;;;;;;-142.75;100.00;75950.28;5077237;28;20435;-65
2023/08/13 08:23:15;;;;;;;5.68;1.00;;;;;;;-142.75;100.00;75956.19;5087538;28;20032;-65
2023/08/13 08:25:40;;;;;;;4.68;1.15;;;;;;;-142.75;100.00;75960.13;5087772;28;20028;-64
2023/08/13 08:28:05;;;;;;;6.03;1.02;;;;;;;-142.75;100.00;75975.84;5087780;28;20063;-64
2023/08/13 08:30:31;;;;;;;4.95;1.08;;;;;;;-142.75;100.00;75989.63;5087649;28;20081;-65
2023/08/13 08:32:56;;;;;;;4.65;1.00;;;;;;;-142.75;100.00;75993.56;5087171;28;20020;-64
2023/08/13 08:35:21;;;;;;;5.22;0.95;;;;;;;-142.75;100.00;76003.41;5067659;28;20468;-65
2023/08/13 08:37:47;;;;;;;8.85;1.10;;;;;;;-142.75;100.00;75985.69;5067364;28;20396;-65
2023/08/13 08:40:13;;;;;;;5.65;1.10;;;;;;;-142.75;100.00;76021.13;5067557;28;20707;-65
2023/08/13 08:42:40;;;;;;;8.00;1.00;;;;;;;-142.75;100.00;76048.69;5067497;28;20039;-65
2023/08/13 08:45:07;;;;;;;4.93;1.00;;;;;;;-142.75;100.00;76042.78;5069559;28;20107;-64
2023/08/13 08:47:33;;;;;;;7.88;1.33;;;;;;;-142.75;100.00;76003.41;5070995;28;20047;-64
2023/08/13 08:50:03;;;;;;;7.05;1.10;;;;;;;-142.75;100.00;76003.41;5070798;28;20027;-65
2023/08/13 08:52:32;;;;;;;10.30;1.90;;;;;;;-142.75;100.00;76003.41;5073426;28;20479;-64
2023/08/13 08:54:59;;;;;;;7.10;1.33;;;;;;;-142.75;100.00;76003.41;5072626;28;20108;-64
2023/08/13 08:57:24;;;;;;;5.45;1.20;;;;;;;-142.75;100.00;75977.81;5075444;28;20024;-64
2023/08/13 08:59:49;;;;;;;8.48;1.50;;;;;;;-142.75;100.00;75979.78;5087340;28;20087;-65
2023/08/13 09:02:15;;;;;;;4.13;1.45;;;;;;;-142.75;100.00;75964.03;5087135;28;20561;-65
2023/08/13 09:04:40;;;;;;;9.18;2.35;;;;;;;-142.75;100.00;75962.09;5087197;28;20086;-65
2023/08/13 09:07:06;;;;;;;7.43;1.73;;;;;;;-142.75;100.00;75975.84;5087075;28;20494;-64
2023/08/13 09:09:32;;;;;;;7.75;1.60;;;;;;;-142.75;100.00;75979.78;5086552;28;20028;-65
2023/08/13 09:11:58;;;;;;;6.07;1.17;;;;;;;-142.75;100.00;76015.22;5077531;28;20047;-65
2023/08/13 09:14:25;;;;;;;6.00;1.15;;;;;;;-142.75;100.00;76058.53;5071067;28;20047;-64
2023/08/13 09:16:55;;;;;;;6.68;1.17;;;;;;;-142.75;100.00;76068.38;5070181;28;20056;-64
2023/08/13 09:19:26;;;;;;;5.93;1.10;;;;;;;-142.75;100.00;76076.22;5064991;28;20442;-64
2023/08/13 09:21:52;;;;;;;3.30;1.00;;;;;;;-142.75;100.00;76070.34;5071693;28;20060;-64
2023/08/13 09:24:18;;;;;;;7.40;1.40;;;;;;;-142.75;100.00;76097.88;5066309;28;20024;-64
2023/08/13 09:26:44;;;;;;;5.05;1.08;;;;;;;-142.75;100.00;76044.75;5066459;28;20654;-64
2023/08/13 09:29:10;;;;;;;7.30;1.30;;;;;;;-142.75;100.00;76042.78;5066504;28;20498;-64
2023/08/13 09:31:36;;;;;;;5.95;1.30;;;;;;;-142.75;100.00;76038.84;5066375;28;20032;-64
2023/08/13 09:34:02;;;;;;;4.32;1.20;;;;;;;-142.75;100.00;76021.13;5065734;28;20028;-64
2023/08/13 09:36:28;;;;;;;4.05;0.90;;;;;;;-142.75;100.00;75997.50;5066272;28;20024;-64
2023/08/13 09:38:54;;;;;;;3.17;0.75;;;;;;;-142.75;100.00;75989.63;5065994;28;20032;-64
2023/08/13 09:41:20;;;;;;;5.63;1.17;;;;;;;-142.75;100.00;75969.94;5067450;28;20024;-64
2023/08/13 09:43:49;;;;;;;5.63;1.10;;;;;;;-142.75;100.00;75979.78;5070381;28;20028;-64
2023/08/13 09:46:20;;;;;;;4.65;1.25;;;;;;;-142.75;100.00;75981.75;5072646;28;20499;-63
2023/08/13 09:48:46;;;;;;;3.95;0.95;;;;;;;-142.75;100.00;76003.41;5069827;28;20031;-64
2023/08/13 09:51:13;;;;;;;3.90;0.95;;;;;;;-142.75;100.00;75989.63;5068575;28;20056;-64
2023/08/13 09:53:45;;;;;;;4.28;0.98;;;;;;;-142.75;100.00;75975.84;5065805;28;20020;-64
2023/08/13 09:56:13;;;;;;;5.18;1.25;;;;;;;-142.75;100.00;75971.91;5064841;28;20050;-64
2023/08/13 09:58:38;;;;;;;6.32;1.13;;;;;;;-142.75;100.00;76003.41;5065076;28;20020;-63
2023/08/13 10:01:05;;;;;;;6.85;1.45;;;;;;;-142.75;100.00;75987.66;5065102;28;20027;-64
2023/08/13 10:03:31;;;;;;;5.90;1.13;;;;;;;-142.75;100.00;75983.72;5064970;28;20478;-64
2023/08/13 10:05:57;;;;;;;2.95;0.85;;;;;;;-142.75;100.00;75967.97;5065258;28;20023;-64
2023/08/13 10:08:23;;;;;;;11.00;1.30;;;;;;;-142.75;100.00;75960.13;5066038;28;20032;-64
2023/08/13 10:10:48;;;;;;;2.72;1.17;;;;;;;-142.75;100.00;75975.84;5065438;28;20032;-64
2023/08/13 10:13:14;;;;;;;5.68;1.13;;;;;;;-142.75;100.00;75991.59;5069275;28;20042;-64
2023/08/13 10:15:41;;;;;;;3.65;0.80;;;;;;;-142.75;100.00;76003.41;5068684;28;20032;-64
2023/08/13 10:18:06;;;;;;;5.50;1.20;;;;;;;-142.75;100.00;75979.78;5078042;28;20027;-63
2023/08/13 10:20:31;;;;;;;5.05;1.33;;;;;;;-142.75;100.00;76001.44;5078682;28;20025;-64
2023/08/13 10:22:57;;;;;;;5.57;1.20;;;;;;;-142.75;100.00;75989.63;5071096;28;20056;-63
2023/08/13 10:25:26;;;;;;;4.00;0.88;;;;;;;-142.75;100.00;75995.53;5074457;28;20052;-64
2023/08/13 10:27:53;;;;;;;8.43;1.15;;;;;;;-142.75;100.00;75991.59;5081248;28;20043;-64
2023/08/13 10:30:18;;;;;;;5.30;1.20;;;;;;;-142.75;100.00;75997.50;5080831;28;20032;-64
2023/08/13 10:33:00;;;;;;;4.53;0.90;;;;;;;-142.75;100.00;76015.22;5064996;28;20031;-64
2023/08/13 10:35:28;;;;;;;6.07;1.00;;;;;;;-142.75;100.00;76003.41;5065663;28;20021;-65
2023/08/13 10:37:56;;;;;;;6.53;1.08;;;;;;;-142.75;100.00;75956.19;5065395;28;20028;-65
2023/08/13 10:40:22;;;;;;;3.22;1.00;;;;;;;-142.75;100.00;75893.19;5065577;28;20029;-64
2023/08/13 10:42:52;;;;;;;3.70;0.93;;;;;;;-142.75;100.00;75887.28;5067846;28;20646;-64
2023/08/13 10:45:19;;;;;;;4.55;1.30;;;;;;;-142.75;100.00;75875.47;5070010;28;20369;-64
2023/08/13 10:47:47;;;;;;;2.33;0.70;;;;;;;-142.75;100.00;75810.53;5065380;28;20035;-65
2023/08/13 10:50:19;;;;;;;8.45;1.27;;;;;;;-142.75;100.00;75775.09;5066821;28;20032;-65
2023/08/13 10:52:52;;;;;;;3.05;0.77;;;;;;;-142.75;100.00;75739.69;5074197;28;20111;-64
2023/08/13 10:55:30;;;;;;;7.15;1.30;;;;;;;-142.75;100.00;75729.84;5080182;28;20024;-64
2023/08/13 10:57:55;;;;;;;4.70;1.15;;;;;;;-142.75;100.00;75708.19;5081902;28;20118;-65
2023/08/13 11:00:22;;;;;;;4.38;1.10;;;;;;;-142.75;100.00;75678.66;5081795;28;20169;-64
2023/08/13 11:02:52;;;;;;;4.55;1.00;;;;;;;-142.75;100.00;75680.63;5084193;28;20032;-64